createdAt,value
2018-03-16T00:00:43.373Z,11.93
2018-03-16T00:03:10.294Z,10.43
2018-03-16T00:05:37.288Z,10.40
2018-03-16T00:08:04.354Z,9.83
2018-03-16T00:10:31.223Z,10.43
2018-03-16T00:12:58.104Z,9.73
2018-03-16T00:15:25.206Z,8.73
2018-03-16T00:17:52.196Z,8.17
2018-03-16T00:20:19.139Z,7.43
2018-03-16T00:22:46.450Z,6.73
2018-03-16T00:25:13.408Z,6.00
2018-03-16T00:27:40.376Z,5.87
2018-03-16T00:30:07.396Z,5.60
2018-03-16T00:32:34.392Z,5.10
2018-03-16T00:35:01.305Z,4.97
2018-03-16T00:37:28.302Z,4.50
2018-03-16T00:39:55.338Z,4.20
2018-03-16T00:42:22.442Z,4.30
2018-03-16T00:44:49.548Z,4.77
2018-03-16T00:47:16.769Z,4.07
2018-03-16T00:49:43.726Z,4.30
2018-03-16T00:52:10.759Z,3.73
2018-03-16T00:54:38.095Z,4.40
2018-03-16T00:57:05.263Z,4.63
2018-03-16T00:59:32.387Z,4.73
2018-03-16T01:01:59.631Z,4.17
2018-03-16T01:04:26.598Z,4.17
2018-03-16T01:06:53.590Z,4.50
2018-03-16T01:09:20.558Z,5.77
2018-03-16T01:11:47.728Z,4.30
2018-03-16T01:14:14.622Z,4.70
2018-03-16T01:16:42.207Z,5.20
2018-03-16T01:19:09.227Z,4.73
2018-03-16T01:21:36.453Z,4.70
2018-03-16T01:24:03.461Z,5.10
2018-03-16T01:26:30.540Z,4.57
2018-03-16T01:28:57.618Z,5.23
2018-03-16T01:31:24.582Z,5.17
2018-03-16T01:33:51.689Z,5.00
2018-03-16T01:36:18.675Z,5.33
2018-03-16T01:38:45.684Z,4.90
2018-03-16T01:41:12.806Z,5.00
2018-03-16T01:43:39.784Z,4.90
2018-03-16T01:46:06.825Z,5.20
2018-03-16T01:48:33.816Z,5.63
2018-03-16T01:51:00.762Z,5.27
2018-03-16T01:53:27.598Z,4.90
2018-03-16T01:55:54.582Z,5.10
2018-03-16T01:58:21.662Z,5.07
2018-03-16T02:00:48.626Z,5.33
2018-03-16T02:03:15.699Z,5.67
2018-03-16T02:05:42.761Z,4.80
2018-03-16T02:08:09.678Z,5.40
2018-03-16T02:10:36.662Z,4.77
2018-03-16T02:13:03.641Z,5.30
2018-03-16T02:15:30.673Z,5.07
2018-03-16T02:17:57.633Z,5.50
2018-03-16T02:20:24.598Z,5.00
2018-03-16T02:22:51.491Z,5.23
2018-03-16T02:25:18.472Z,5.20
2018-03-16T02:27:45.589Z,5.13
2018-03-16T02:30:12.593Z,5.60
2018-03-16T02:32:39.457Z,5.03
2018-03-16T02:35:06.343Z,5.53
2018-03-16T02:37:33.396Z,4.87
2018-03-16T02:40:00.367Z,5.30
2018-03-16T02:42:27.373Z,5.10
2018-03-16T02:44:54.272Z,5.30
2018-03-16T02:47:21.333Z,5.30
2018-03-16T02:49:48.377Z,5.37
2018-03-16T02:52:15.603Z,5.13
2018-03-16T02:54:42.687Z,4.90
2018-03-16T02:57:09.741Z,4.70
2018-03-16T02:59:36.638Z,5.13
2018-03-16T03:02:03.887Z,5.00
2018-03-16T03:04:30.862Z,4.70
2018-03-16T03:06:57.863Z,4.77
2018-03-16T03:09:24.898Z,5.23
2018-03-16T03:11:51.950Z,4.77
2018-03-16T03:14:18.837Z,4.43
2018-03-16T03:16:45.768Z,4.97
2018-03-16T03:19:12.893Z,5.00
2018-03-16T03:21:39.899Z,4.77
2018-03-16T03:24:06.891Z,4.80
2018-03-16T03:26:33.915Z,5.20
2018-03-16T03:29:00.897Z,4.80
2018-03-16T03:31:27.881Z,5.13
2018-03-16T03:33:54.758Z,4.80
2018-03-16T03:36:21.854Z,4.87
2018-03-16T03:38:48.892Z,4.83
2018-03-16T03:41:16.068Z,5.53
2018-03-16T03:43:43.074Z,5.00
2018-03-16T03:46:10.031Z,5.07
2018-03-16T03:48:37.077Z,5.13
2018-03-16T03:51:04.201Z,5.80
2018-03-16T03:53:31.016Z,5.80
2018-03-16T03:55:58.023Z,5.37
2018-03-16T03:58:25.224Z,5.80
2018-03-16T04:00:52.367Z,5.83
2018-03-16T04:03:19.410Z,6.03
2018-03-16T04:05:46.463Z,6.07
2018-03-16T04:08:13.469Z,6.67
2018-03-16T04:10:40.605Z,7.10
2018-03-16T04:13:07.658Z,11.70
2018-03-16T04:15:34.825Z,7.77
2018-03-16T04:18:01.816Z,13.30
2018-03-16T04:20:28.745Z,13.50
2018-03-16T04:22:55.700Z,15.03
2018-03-16T04:25:22.690Z,8.93
2018-03-16T04:27:49.731Z,8.60
2018-03-16T04:30:16.838Z,7.47
2018-03-16T04:32:44.095Z,8.00
2018-03-16T04:35:11.032Z,7.43
2018-03-16T04:37:38.080Z,7.80
2018-03-16T04:40:05.068Z,8.33
2018-03-16T04:42:32.121Z,7.73
2018-03-16T04:44:59.206Z,8.93
2018-03-16T04:47:26.306Z,7.73
2018-03-16T04:49:53.247Z,8.07
2018-03-16T04:52:20.301Z,9.60
2018-03-16T04:54:47.304Z,11.70
2018-03-16T04:57:14.379Z,14.53
2018-03-16T04:59:41.399Z,17.40
2018-03-16T05:02:08.305Z,41.10
2018-03-16T05:04:35.254Z,69.60
2018-03-16T05:07:02.639Z,320.77
2018-03-16T05:09:29.590Z,287.60
2018-03-16T05:11:56.502Z,221.10
2018-03-16T05:14:23.497Z,61.60
2018-03-16T05:16:50.497Z,26.77
2018-03-16T05:19:17.648Z,23.93
2018-03-16T05:21:44.689Z,20.83
2018-03-16T05:24:12.154Z,21.93
2018-03-16T05:26:39.270Z,16.37
2018-03-16T05:29:06.361Z,16.80
2018-03-16T05:31:33.404Z,16.33
2018-03-16T05:34:00.338Z,17.47
2018-03-16T05:36:27.478Z,15.77
2018-03-16T05:38:54.655Z,15.13
2018-03-16T05:41:21.720Z,14.03
2018-03-16T05:43:48.945Z,19.60
2018-03-16T05:46:15.899Z,21.80
2018-03-16T05:48:43.007Z,20.20
2018-03-16T05:51:10.110Z,21.90
2018-03-16T05:53:37.299Z,21.70
2018-03-16T05:56:04.522Z,21.83
2018-03-16T05:58:31.485Z,20.33
2018-03-16T06:00:58.889Z,19.63
2018-03-16T06:03:25.756Z,21.07
2018-03-16T06:05:52.836Z,28.20
2018-03-16T06:08:19.751Z,21.87
2018-03-16T06:10:46.561Z,20.83
2018-03-16T06:13:13.570Z,20.67
2018-03-16T06:15:40.612Z,21.60
2018-03-16T06:18:07.674Z,23.73
2018-03-16T06:20:34.685Z,28.80
2018-03-16T06:23:02.586Z,32.63
2018-03-16T06:25:29.412Z,30.90
2018-03-16T06:27:56.308Z,32.77
2018-03-16T06:30:23.398Z,34.87
2018-03-16T06:32:50.372Z,30.00
2018-03-16T06:35:17.345Z,31.00
2018-03-16T06:37:44.390Z,30.10
2018-03-16T06:40:11.293Z,43.23
2018-03-16T06:42:38.246Z,36.27
2018-03-16T06:45:05.417Z,26.73
2018-03-16T06:47:32.440Z,29.17
2018-03-16T06:49:59.350Z,28.07
2018-03-16T06:52:26.444Z,29.53
2018-03-16T06:54:53.421Z,32.03
2018-03-16T06:57:20.393Z,25.93
2018-03-16T06:59:47.558Z,28.73
2018-03-16T07:02:14.510Z,29.57
2018-03-16T07:04:41.375Z,37.00
2018-03-16T07:07:08.308Z,32.90
2018-03-16T07:09:35.212Z,31.57
2018-03-16T07:12:02.238Z,29.10
2018-03-16T07:14:29.231Z,33.13
2018-03-16T07:16:56.294Z,21.77
2018-03-16T07:19:23.265Z,33.00
2018-03-16T07:21:50.407Z,20.77
2018-03-16T07:24:17.370Z,20.23
2018-03-16T07:26:44.440Z,18.73
2018-03-16T07:29:11.328Z,17.90
2018-03-16T07:31:38.343Z,17.33
2018-03-16T07:34:05.314Z,16.30
2018-03-16T07:36:32.255Z,16.90
2018-03-16T07:38:59.130Z,17.57
2018-03-16T07:41:26.457Z,16.77
2018-03-16T07:43:53.384Z,18.23
2018-03-16T07:46:20.358Z,17.67
2018-03-16T07:48:47.286Z,21.03
2018-03-16T07:51:14.443Z,24.77
2018-03-16T07:53:41.450Z,19.43
2018-03-16T07:56:08.486Z,19.73
2018-03-16T07:58:35.552Z,21.53
2018-03-16T08:01:02.970Z,21.97
2018-03-16T08:03:29.931Z,32.90
2018-03-16T08:05:56.983Z,29.33
2018-03-16T08:08:23.979Z,56.33
2018-03-16T08:10:51.200Z,29.33
2018-03-16T08:13:18.078Z,19.27
2018-03-16T08:15:45.101Z,21.90
2018-03-16T08:18:12.031Z,17.57
2018-03-16T08:20:39.140Z,18.53
2018-03-16T08:23:06.160Z,21.00
2018-03-16T08:25:33.076Z,15.47
2018-03-16T08:28:00.477Z,21.00
2018-03-16T08:30:27.544Z,13.73
2018-03-16T08:32:54.554Z,14.70
2018-03-16T08:35:21.568Z,13.20
2018-03-16T08:37:48.490Z,17.80
2018-03-16T08:40:15.655Z,18.43
2018-03-16T08:42:42.603Z,13.73
2018-03-16T08:45:09.644Z,14.83
2018-03-16T08:47:36.549Z,14.87
2018-03-16T08:50:03.501Z,15.33
2018-03-16T08:52:31.360Z,15.13
2018-03-16T08:54:58.210Z,20.27
2018-03-16T08:57:25.149Z,19.97
2018-03-16T08:59:52.125Z,28.37
2018-03-16T09:02:19.142Z,22.63
2018-03-16T09:04:46.124Z,22.23
2018-03-16T09:07:13.068Z,20.23
2018-03-16T09:09:40.018Z,21.67
2018-03-16T09:12:07.037Z,20.57
2018-03-16T09:14:33.950Z,19.03
2018-03-16T09:17:01.060Z,20.63
2018-03-16T09:19:27.956Z,24.10
2018-03-16T09:21:54.913Z,28.27
2018-03-16T09:24:21.814Z,29.97
2018-03-16T09:26:48.975Z,30.70
2018-03-16T09:29:15.997Z,31.13
2018-03-16T09:31:43.464Z,31.77
2018-03-16T09:34:10.446Z,29.20
2018-03-16T09:36:37.654Z,29.10
2018-03-16T09:39:04.735Z,30.03
2018-03-16T09:41:32.355Z,32.13
2018-03-16T09:43:59.228Z,30.50
2018-03-16T09:46:26.514Z,32.73
2018-03-16T09:48:53.871Z,31.27
2018-03-16T09:51:20.928Z,36.77
2018-03-16T09:53:48.001Z,31.23
2018-03-16T09:56:15.179Z,28.97
2018-03-16T09:58:42.251Z,30.77
2018-03-16T10:01:09.186Z,30.23
2018-03-16T10:03:36.249Z,28.53
2018-03-16T10:06:03.411Z,27.27
2018-03-16T10:08:30.292Z,30.00
2018-03-16T10:10:57.450Z,34.60
2018-03-16T10:13:24.439Z,31.43
2018-03-16T10:15:51.530Z,29.73
2018-03-16T10:18:18.549Z,30.47
2018-03-16T10:20:45.631Z,30.23
2018-03-16T10:23:12.594Z,28.67
2018-03-16T10:25:39.539Z,28.60
2018-03-16T10:28:06.646Z,31.10
2018-03-16T10:30:33.568Z,29.20
2018-03-16T10:33:00.618Z,29.43
2018-03-16T10:35:27.958Z,29.73
2018-03-16T10:37:54.911Z,28.37
2018-03-16T10:40:21.920Z,29.40
2018-03-16T10:42:48.966Z,33.20
2018-03-16T10:45:16.102Z,31.80
2018-03-16T10:47:43.078Z,29.37
2018-03-16T10:50:10.054Z,31.13
2018-03-16T10:52:37.101Z,30.13
2018-03-16T10:55:04.090Z,31.63
2018-03-16T10:57:31.119Z,32.47
2018-03-16T10:59:58.193Z,32.53
2018-03-16T11:02:25.392Z,31.73
2018-03-16T11:04:58.042Z,30.37
2018-03-16T11:07:39.844Z,29.03
2018-03-16T11:10:06.834Z,29.77
2018-03-16T11:12:33.842Z,29.90
2018-03-16T11:15:00.806Z,29.27
2018-03-16T11:17:27.931Z,29.47
2018-03-16T11:19:54.922Z,30.33
2018-03-16T11:22:21.933Z,28.87
2018-03-16T11:24:48.845Z,30.33
2018-03-16T11:27:15.896Z,27.80
2018-03-16T11:29:42.825Z,28.30
2018-03-16T11:32:09.799Z,27.33
2018-03-16T11:34:36.728Z,25.93
2018-03-16T11:37:03.730Z,26.40
2018-03-16T11:39:30.669Z,25.77
2018-03-16T11:41:57.730Z,26.17
2018-03-16T11:44:24.827Z,24.80
2018-03-16T11:46:51.678Z,24.40
2018-03-16T11:49:18.759Z,23.40
2018-03-16T11:51:46.669Z,22.77
2018-03-16T11:54:13.829Z,22.57
2018-03-16T11:56:41.056Z,20.97
2018-03-16T11:59:07.962Z,19.90
2018-03-16T12:01:34.932Z,18.43
2018-03-16T12:04:01.960Z,18.47
2018-03-16T12:06:28.920Z,17.77
2018-03-16T12:08:56.069Z,20.10
2018-03-16T12:11:23.268Z,16.37
2018-03-16T12:13:50.327Z,12.87
2018-03-16T12:16:17.388Z,14.30
2018-03-16T12:18:44.379Z,14.57
2018-03-16T12:21:11.562Z,13.10
2018-03-16T12:23:38.580Z,14.50
2018-03-16T12:26:05.603Z,14.83
2018-03-16T12:28:49.434Z,14.27
2018-03-16T12:30:59.691Z,13.57
2018-03-16T12:33:26.584Z,13.70
2018-03-16T12:35:53.636Z,13.13
2018-03-16T12:38:20.838Z,14.83
2018-03-16T12:40:47.833Z,18.63
2018-03-16T12:43:14.683Z,15.10
2018-03-16T12:45:41.659Z,15.03
2018-03-16T12:48:08.490Z,15.43
2018-03-16T12:50:35.320Z,15.70
2018-03-16T12:53:02.260Z,14.87
2018-03-16T12:55:29.147Z,14.73
2018-03-16T12:57:56.075Z,13.63
2018-03-16T13:00:23.040Z,15.20
2018-03-16T13:02:50.003Z,14.27
2018-03-16T13:05:19.023Z,14.30
2018-03-16T13:07:46.611Z,16.67
2018-03-16T13:10:13.679Z,16.27
2018-03-16T13:12:40.603Z,15.17
2018-03-16T13:15:07.660Z,15.33
2018-03-16T13:17:34.617Z,15.00
2018-03-16T13:20:01.642Z,15.70
2018-03-16T13:22:28.759Z,19.27
2018-03-16T13:24:55.803Z,16.47
2018-03-16T13:27:22.727Z,19.30
2018-03-16T13:29:49.784Z,17.10
2018-03-16T13:32:19.290Z,18.30
2018-03-16T13:34:47.293Z,17.73
2018-03-16T13:37:14.334Z,16.60
2018-03-16T13:39:41.593Z,19.00
2018-03-16T13:42:08.494Z,16.77
2018-03-16T13:44:35.415Z,17.23
2018-03-16T13:47:02.309Z,18.37
2018-03-16T13:49:30.762Z,17.23
2018-03-16T13:51:58.991Z,17.37
2018-03-16T13:54:26.807Z,15.73
2018-03-16T13:56:55.325Z,15.40
2018-03-16T13:59:22.546Z,15.03
2018-03-16T14:01:50.836Z,16.90
2018-03-16T14:04:17.893Z,17.30
2018-03-16T14:06:46.169Z,17.47
2018-03-16T14:09:21.464Z,22.63
2018-03-16T14:11:57.381Z,18.03
2018-03-16T14:14:32.707Z,17.90
2018-03-16T14:16:59.812Z,18.03
2018-03-16T14:19:27.258Z,19.47
2018-03-16T14:21:55.799Z,17.60
2018-03-16T14:24:26.196Z,17.67
2018-03-16T14:26:54.388Z,17.67
2018-03-16T14:29:21.414Z,18.73
2018-03-16T14:31:48.607Z,18.90
2018-03-16T14:34:16.384Z,17.37
2018-03-16T14:36:43.726Z,17.10
2018-03-16T14:39:11.130Z,15.97
2018-03-16T14:41:38.307Z,17.77
2018-03-16T14:44:05.446Z,15.77
2018-03-16T14:46:33.348Z,17.27
2018-03-16T14:49:00.418Z,14.10
2018-03-16T14:51:27.581Z,20.17
2018-03-16T14:53:54.900Z,14.93
2018-03-16T14:56:22.275Z,16.77
2018-03-16T14:58:49.330Z,16.50
2018-03-16T15:01:16.817Z,22.20
2018-03-16T15:03:43.862Z,20.00
2018-03-16T15:06:11.546Z,19.27
2018-03-16T15:08:38.640Z,20.43
2018-03-16T15:11:05.836Z,17.77
2018-03-16T15:13:33.129Z,19.77
2018-03-16T15:16:00.227Z,18.77
2018-03-16T15:18:27.132Z,19.30
2018-03-16T15:20:54.215Z,23.30
2018-03-16T15:23:21.232Z,21.40
2018-03-16T15:25:48.218Z,24.47
2018-03-16T15:28:15.248Z,24.00
2018-03-16T15:30:42.272Z,21.80
2018-03-16T15:33:09.213Z,21.30
2018-03-16T15:35:36.102Z,19.47
2018-03-16T15:38:04.111Z,19.40
2018-03-16T15:40:31.070Z,19.17
2018-03-16T15:42:57.927Z,27.40
2018-03-16T15:45:24.860Z,43.07
2018-03-16T15:47:51.763Z,22.80
2018-03-16T15:50:18.599Z,19.37
2018-03-16T15:52:45.526Z,19.00
2018-03-16T15:55:12.658Z,17.20
2018-03-16T15:57:39.519Z,18.23
2018-03-16T16:00:06.531Z,17.53
2018-03-16T16:02:33.462Z,24.10
2018-03-16T16:05:00.369Z,19.83
2018-03-16T16:07:27.243Z,20.60
2018-03-16T16:09:54.217Z,19.60
2018-03-16T16:12:21.269Z,26.13
2018-03-16T16:14:48.256Z,18.17
2018-03-16T16:17:15.466Z,18.40
2018-03-16T16:19:42.536Z,19.03
2018-03-16T16:22:10.670Z,18.63
2018-03-16T16:24:38.859Z,19.27
2018-03-16T16:27:05.879Z,19.17
2018-03-16T16:29:32.905Z,19.23
2018-03-16T16:32:00.274Z,19.47
2018-03-16T16:34:27.249Z,18.40
2018-03-16T16:36:54.495Z,19.93
2018-03-16T16:39:21.568Z,18.40
2018-03-16T16:41:49.030Z,20.13
2018-03-16T16:44:16.060Z,20.07
2018-03-16T16:46:43.048Z,19.17
2018-03-16T16:49:09.949Z,18.27
2018-03-16T16:51:37.083Z,20.37
2018-03-16T16:54:03.958Z,20.70
2018-03-16T16:56:30.883Z,15.40
2018-03-16T16:58:57.808Z,15.43
2018-03-16T17:01:24.789Z,15.10
2018-03-16T17:03:51.775Z,15.67
2018-03-16T17:06:18.860Z,12.50
2018-03-16T17:08:45.848Z,11.70
2018-03-16T17:11:12.858Z,11.60
2018-03-16T17:13:39.804Z,11.80
2018-03-16T17:16:06.740Z,10.50
2018-03-16T17:18:33.653Z,8.70
2018-03-16T17:21:00.690Z,9.20
2018-03-16T17:23:27.594Z,9.20
2018-03-16T17:25:54.653Z,8.60
2018-03-16T17:28:21.813Z,9.23
2018-03-16T17:30:48.905Z,9.30
2018-03-16T17:33:16.054Z,8.67
2018-03-16T17:35:43.003Z,7.90
2018-03-16T17:38:09.942Z,7.53
2018-03-16T17:40:36.852Z,9.77
2018-03-16T17:43:03.930Z,14.93
2018-03-16T17:45:30.852Z,11.27
2018-03-16T17:47:57.796Z,8.27
2018-03-16T17:50:24.818Z,6.20
2018-03-16T17:52:51.762Z,6.80
2018-03-16T17:55:18.778Z,7.40
2018-03-16T17:57:45.982Z,6.40
2018-03-16T18:00:12.914Z,5.73
2018-03-16T18:02:39.836Z,6.83
2018-03-16T18:05:06.908Z,6.73
2018-03-16T18:07:33.943Z,7.03
2018-03-16T18:10:00.815Z,7.03
2018-03-16T18:12:28.048Z,9.00
2018-03-16T18:14:54.995Z,6.50
2018-03-16T18:17:22.026Z,4.37
2018-03-16T18:19:49.184Z,4.60
2018-03-16T18:22:16.198Z,4.37
2018-03-16T18:24:43.115Z,4.23
2018-03-16T18:27:10.035Z,3.90
2018-03-16T18:29:37.073Z,4.47
2018-03-16T18:32:04.103Z,4.33
2018-03-16T18:34:30.972Z,5.00
2018-03-16T18:36:57.944Z,5.47
2018-03-16T18:39:24.808Z,5.63
2018-03-16T18:41:51.764Z,6.37
2018-03-16T18:44:18.820Z,7.23
2018-03-16T18:46:45.817Z,7.83
2018-03-16T18:49:12.873Z,7.53
2018-03-16T18:51:39.942Z,8.30
2018-03-16T18:54:06.940Z,9.97
2018-03-16T18:56:36.580Z,9.80
2018-03-16T18:59:03.584Z,9.83
2018-03-16T19:01:30.592Z,10.13
2018-03-16T19:03:57.641Z,10.07
2018-03-16T19:06:24.660Z,10.30
2018-03-16T19:08:52.558Z,10.37
2018-03-16T19:11:20.330Z,9.27
2018-03-16T19:13:47.702Z,9.33
2018-03-16T19:16:15.977Z,8.23
2018-03-16T19:18:44.688Z,8.83
2018-03-16T19:21:12.759Z,8.50
2018-03-16T19:23:40.174Z,8.43
2018-03-16T19:26:07.667Z,8.40
2018-03-16T19:28:34.624Z,7.97
2018-03-16T19:31:02.294Z,8.00
2018-03-16T19:33:30.412Z,8.20
2018-03-16T19:35:58.631Z,7.83
2018-03-16T19:38:26.561Z,7.57
2018-03-16T19:40:53.899Z,7.87
2018-03-16T19:43:21.408Z,7.60
2018-03-16T19:45:50.088Z,7.93
2018-03-16T19:48:17.804Z,8.63
2018-03-16T19:50:44.871Z,8.00
2018-03-16T19:53:11.972Z,8.13
2018-03-16T19:55:40.852Z,6.83
2018-03-16T19:58:07.943Z,8.33
2018-03-16T20:00:35.183Z,7.43
2018-03-16T20:03:02.206Z,7.77
2018-03-16T20:05:29.014Z,8.23
2018-03-16T20:07:55.963Z,9.03
2018-03-16T20:10:23.669Z,8.83
2018-03-16T20:12:50.543Z,8.60
2018-03-16T20:15:17.460Z,9.47
2018-03-16T20:17:44.495Z,9.50
2018-03-16T20:20:11.545Z,10.03
2018-03-16T20:22:38.595Z,9.63
2018-03-16T20:25:05.551Z,9.90
2018-03-16T20:27:32.563Z,11.07
2018-03-16T20:29:59.659Z,10.00
2018-03-16T20:32:26.691Z,10.57
2018-03-16T20:34:53.729Z,11.03
2018-03-16T20:37:20.649Z,11.17
2018-03-16T20:39:47.653Z,11.57
2018-03-16T20:42:14.521Z,11.27
2018-03-16T20:44:41.857Z,12.67
2018-03-16T20:47:09.429Z,12.40
2018-03-16T20:49:36.495Z,12.20
2018-03-16T20:52:03.573Z,13.40
2018-03-16T20:54:30.530Z,12.53
2018-03-16T20:56:57.673Z,13.13
2018-03-16T20:59:24.637Z,12.67
2018-03-16T21:01:51.764Z,13.67
2018-03-16T21:04:18.810Z,12.80
2018-03-16T21:06:45.803Z,13.73
2018-03-16T21:09:12.754Z,12.93
2018-03-16T21:11:40.060Z,13.93
2018-03-16T21:14:07.079Z,12.87
2018-03-16T21:19:14.892Z,13.50
2018-03-16T21:21:41.811Z,13.90
2018-03-16T21:24:09.037Z,13.87
2018-03-16T21:26:53.664Z,12.77
2018-03-16T21:29:37.124Z,13.73
2018-03-16T21:32:05.715Z,12.90
2018-03-16T21:34:34.702Z,13.90
2018-03-16T21:37:16.811Z,13.33
2018-03-16T21:39:53.932Z,14.37
2018-03-16T21:42:24.823Z,13.60
2018-03-16T21:44:52.810Z,15.20
2018-03-16T21:47:20.013Z,14.43
2018-03-16T21:49:49.048Z,14.80
2018-03-16T21:52:17.504Z,15.03
2018-03-16T21:54:44.977Z,15.10
2018-03-16T21:57:12.048Z,15.27
2018-03-16T21:59:39.305Z,14.67
2018-03-16T22:02:06.201Z,15.03
2018-03-16T22:04:33.230Z,15.57
2018-03-16T22:07:00.276Z,15.77
2018-03-16T22:09:27.293Z,16.07
2018-03-16T22:11:54.236Z,15.10
2018-03-16T22:14:22.155Z,14.77
2018-03-16T22:16:49.502Z,14.97
2018-03-16T22:19:16.567Z,15.90
2018-03-16T22:21:44.153Z,14.47
2018-03-16T22:24:11.391Z,11.53
2018-03-16T22:26:39.703Z,11.77
2018-03-16T22:29:07.691Z,10.80
2018-03-16T22:31:35.336Z,10.80
2018-03-16T22:34:02.251Z,10.47
2018-03-16T22:36:29.140Z,11.20
2018-03-16T22:38:56.086Z,11.53
2018-03-16T22:41:23.167Z,11.47
2018-03-16T22:43:50.246Z,10.80
2018-03-16T22:46:17.379Z,10.43
2018-03-16T22:48:45.158Z,10.77
2018-03-16T22:51:12.220Z,10.00
2018-03-16T22:53:39.212Z,9.77
2018-03-16T22:56:06.355Z,9.63
2018-03-16T22:58:33.489Z,9.23
2018-03-16T23:01:00.856Z,9.03
2018-03-16T23:03:28.015Z,8.90
2018-03-16T23:05:55.302Z,9.23
2018-03-16T23:08:22.423Z,9.10
2018-03-16T23:10:49.532Z,10.50
2018-03-16T23:13:16.578Z,9.60
2018-03-16T23:15:43.501Z,9.83
2018-03-16T23:18:10.946Z,9.90
2018-03-16T23:20:38.123Z,10.53
2018-03-16T23:23:05.461Z,10.00
2018-03-16T23:25:32.684Z,10.67
2018-03-16T23:27:59.939Z,10.43
2018-03-16T23:30:26.923Z,10.27
2018-03-16T23:32:53.923Z,10.97
2018-03-16T23:35:20.843Z,8.33
2018-03-16T23:37:47.898Z,9.93
2018-03-16T23:40:15.203Z,8.63
2018-03-16T23:42:42.286Z,9.47
2018-03-16T23:45:09.378Z,8.50
2018-03-16T23:47:36.488Z,10.13
2018-03-16T23:50:03.674Z,9.27
2018-03-16T23:52:30.961Z,9.67
2018-03-16T23:54:57.929Z,9.47
2018-03-16T23:57:25.007Z,9.33
2018-03-16T23:59:52.064Z,9.57
